createdAt,value
2018-12-17T00:01:11.648Z,60.74
2018-12-17T00:03:40.165Z,60.40
2018-12-17T00:06:08.969Z,60.09
2018-12-17T00:08:37.552Z,60.66
2018-12-17T00:11:06.252Z,60.27
2018-12-17T00:13:34.723Z,59.97
2018-12-17T00:16:03.344Z,60.03
2018-12-17T00:18:31.811Z,59.86
2018-12-17T00:21:00.340Z,59.80
2018-12-17T00:23:28.848Z,59.90
2018-12-17T00:25:57.481Z,60.19
2018-12-17T00:28:26.004Z,59.97
2018-12-17T00:30:54.515Z,60.28
2018-12-17T00:33:23.045Z,60.15
2018-12-17T00:35:51.763Z,60.38
2018-12-17T00:38:20.352Z,60.42
2018-12-17T00:40:48.821Z,60.34
2018-12-17T00:43:17.374Z,60.79
2018-12-17T00:45:45.958Z,60.36
2018-12-17T00:48:14.459Z,59.85
2018-12-17T00:50:43.020Z,60.13
2018-12-17T00:53:11.765Z,59.84
2018-12-17T00:55:40.233Z,59.80
2018-12-17T00:58:15.005Z,60.16
2018-12-17T01:00:39.291Z,59.84
2018-12-17T01:03:07.812Z,59.75
2018-12-17T01:05:36.395Z,59.77
2018-12-17T01:08:04.912Z,59.77
2018-12-17T01:10:33.392Z,60.24
2018-12-17T01:13:01.907Z,60.06
2018-12-17T01:15:30.407Z,59.70
2018-12-17T01:17:58.941Z,59.98
2018-12-17T01:20:27.444Z,59.63
2018-12-17T01:22:56.002Z,59.60
2018-12-17T01:25:24.429Z,59.53
2018-12-17T01:27:52.967Z,59.92
2018-12-17T01:30:21.555Z,59.73
2018-12-17T01:32:50.037Z,60.31
2018-12-17T01:35:18.501Z,60.25
2018-12-17T01:37:46.941Z,59.78
2018-12-17T01:40:15.967Z,59.98
2018-12-17T01:42:44.480Z,60.27
2018-12-17T01:45:12.932Z,60.11
2018-12-17T01:47:41.511Z,60.22
2018-12-17T01:50:10.050Z,60.08
2018-12-17T01:52:38.651Z,60.18
2018-12-17T01:55:07.088Z,60.03
2018-12-17T01:57:35.619Z,60.55
2018-12-17T02:00:04.181Z,60.17
2018-12-17T02:02:32.671Z,60.15
2018-12-17T02:05:01.141Z,60.50
2018-12-17T02:07:29.593Z,60.25
2018-12-17T02:09:58.153Z,60.87
2018-12-17T02:12:26.625Z,60.62
2018-12-17T02:14:55.145Z,60.51
2018-12-17T02:17:23.646Z,60.67
2018-12-17T02:19:52.110Z,60.43
2018-12-17T02:22:20.614Z,60.67
2018-12-17T02:24:49.141Z,60.35
2018-12-17T02:27:17.619Z,61.07
2018-12-17T02:29:46.179Z,60.89
2018-12-17T02:32:14.658Z,61.70
2018-12-17T02:34:44.233Z,61.33
2018-12-17T02:37:12.683Z,61.45
2018-12-17T02:39:41.205Z,61.52
2018-12-17T02:42:09.687Z,61.43
2018-12-17T02:44:38.219Z,61.25
2018-12-17T02:47:06.765Z,61.58
2018-12-17T02:49:35.356Z,61.06
2018-12-17T02:52:03.803Z,61.77
2018-12-17T02:54:32.283Z,61.75
2018-12-17T02:57:00.761Z,61.59
2018-12-17T02:59:29.197Z,61.91
2018-12-17T03:01:57.661Z,61.35
2018-12-17T03:04:26.185Z,61.73
2018-12-17T03:06:54.634Z,62.21
2018-12-17T03:09:23.354Z,61.77
2018-12-17T03:11:51.842Z,62.23
2018-12-17T03:14:20.314Z,61.63
2018-12-17T03:16:48.860Z,61.61
2018-12-17T03:19:17.381Z,61.76
2018-12-17T03:21:46.170Z,61.86
2018-12-17T03:24:14.717Z,62.63
2018-12-17T03:26:43.214Z,62.17
2018-12-17T03:29:11.698Z,62.03
2018-12-17T03:31:40.372Z,63.16
2018-12-17T03:34:08.850Z,62.67
2018-12-17T03:36:37.318Z,62.54
2018-12-17T03:39:07.232Z,62.31
2018-12-17T03:41:35.736Z,62.50
2018-12-17T03:44:04.183Z,62.23
2018-12-17T03:46:32.679Z,62.81
2018-12-17T03:49:01.155Z,62.68
2018-12-17T03:51:29.635Z,62.38
2018-12-17T03:53:58.115Z,62.32
2018-12-17T03:56:26.630Z,62.29
2018-12-17T03:58:59.235Z,62.90
2018-12-17T04:01:25.639Z,62.26
2018-12-17T04:03:54.132Z,62.22
2018-12-17T04:06:22.611Z,62.60
2018-12-17T04:08:51.135Z,62.62
2018-12-17T04:11:19.598Z,62.61
2018-12-17T04:13:48.080Z,62.33
2018-12-17T04:16:16.592Z,62.76
2018-12-17T04:18:45.118Z,62.40
2018-12-17T04:21:13.757Z,62.98
2018-12-17T04:23:42.209Z,62.17
2018-12-17T04:26:10.775Z,62.02
2018-12-17T04:28:39.275Z,62.38
2018-12-17T04:31:07.765Z,62.29
2018-12-17T04:33:36.362Z,62.49
2018-12-17T04:36:04.891Z,62.29
2018-12-17T04:38:33.707Z,62.08
2018-12-17T04:41:02.341Z,62.14
2018-12-17T04:43:30.931Z,61.97
2018-12-17T04:45:59.425Z,61.81
2018-12-17T04:48:27.956Z,61.97
2018-12-17T04:50:56.430Z,61.43
2018-12-17T04:53:24.994Z,61.92
2018-12-17T04:55:53.657Z,61.86
2018-12-17T04:58:22.183Z,61.40
2018-12-17T05:00:50.778Z,61.17
2018-12-17T05:03:19.474Z,61.42
2018-12-17T05:05:48.005Z,61.43
2018-12-17T05:08:16.614Z,61.95
2018-12-17T05:10:45.110Z,61.87
2018-12-17T05:13:13.614Z,62.12
2018-12-17T05:15:42.102Z,62.22
2018-12-17T05:18:10.662Z,62.02
2018-12-17T05:20:39.237Z,61.79
2018-12-17T05:23:07.780Z,62.17
2018-12-17T05:25:36.254Z,62.21
2018-12-17T05:28:04.833Z,62.32
2018-12-17T05:30:33.329Z,62.49
2018-12-17T05:33:02.809Z,62.05
2018-12-17T05:35:31.423Z,62.64
2018-12-17T05:38:00.058Z,62.17
2018-12-17T05:40:28.620Z,62.09
2018-12-17T05:42:57.152Z,61.75
2018-12-17T05:45:25.736Z,61.69
2018-12-17T05:47:54.309Z,61.84
2018-12-17T05:50:22.832Z,62.18
2018-12-17T05:52:51.403Z,62.72
2018-12-17T05:55:19.957Z,62.52
2018-12-17T05:57:48.469Z,62.75
2018-12-17T06:00:17.002Z,62.62
2018-12-17T06:02:45.531Z,63.07
2018-12-17T06:05:14.091Z,63.14
2018-12-17T06:07:42.699Z,63.08
2018-12-17T06:10:11.213Z,63.82
2018-12-17T06:12:39.702Z,63.45
2018-12-17T06:15:18.019Z,63.84
2018-12-17T06:17:46.429Z,63.58
2018-12-17T06:20:15.243Z,63.90
2018-12-17T06:22:43.770Z,64.18
2018-12-17T06:25:12.318Z,64.38
2018-12-17T06:27:40.813Z,64.19
2018-12-17T06:30:09.242Z,63.96
2018-12-17T06:32:37.726Z,64.74
2018-12-17T06:35:06.617Z,64.64
2018-12-17T06:37:35.066Z,64.74
2018-12-17T06:40:10.034Z,65.16
2018-12-17T06:42:34.446Z,64.82
2018-12-17T06:45:02.994Z,65.15
2018-12-17T06:47:31.554Z,64.71
2018-12-17T06:50:00.008Z,64.87
2018-12-17T06:52:28.575Z,65.37
2018-12-17T06:54:57.030Z,65.44
2018-12-17T06:57:25.510Z,65.05
2018-12-17T06:59:53.976Z,64.48
2018-12-17T07:02:22.944Z,64.86
2018-12-17T07:04:51.398Z,65.09
2018-12-17T07:07:19.841Z,65.34
2018-12-17T07:09:48.258Z,64.81
2018-12-17T07:12:16.765Z,65.41
2018-12-17T07:14:45.224Z,65.09
2018-12-17T07:17:13.761Z,65.33
2018-12-17T07:19:42.207Z,65.38
2018-12-17T07:22:10.693Z,65.46
2018-12-17T07:24:39.150Z,65.41
2018-12-17T07:27:07.672Z,65.35
2018-12-17T07:29:36.149Z,65.06
2018-12-17T07:32:04.633Z,65.02
2018-12-17T07:34:33.451Z,65.15
2018-12-17T07:37:02.327Z,65.53
2018-12-17T07:39:32.538Z,65.44
2018-12-17T07:42:01.076Z,65.21
2018-12-17T07:44:29.591Z,65.01
2018-12-17T07:46:58.098Z,65.10
2018-12-17T07:49:26.568Z,65.38
2018-12-17T07:51:55.097Z,65.16
2018-12-17T07:54:23.596Z,64.95
2018-12-17T07:56:52.450Z,65.29
2018-12-17T07:59:20.955Z,65.38
2018-12-17T08:01:49.400Z,65.44
2018-12-17T08:04:17.860Z,65.44
2018-12-17T08:06:46.372Z,65.57
2018-12-17T08:09:14.877Z,65.73
2018-12-17T08:11:43.361Z,65.54
2018-12-17T08:14:12.230Z,65.76
2018-12-17T08:16:40.706Z,66.16
2018-12-17T08:19:09.279Z,65.83
2018-12-17T08:21:37.769Z,66.03
2018-12-17T08:24:06.265Z,66.19
2018-12-17T08:26:34.823Z,65.96
2018-12-17T08:29:03.338Z,66.13
2018-12-17T08:31:31.846Z,65.90
2018-12-17T08:34:00.407Z,66.03
2018-12-17T08:36:28.882Z,66.10
2018-12-17T08:38:57.328Z,66.01
2018-12-17T08:41:25.875Z,65.77
2018-12-17T08:43:54.354Z,65.72
2018-12-17T08:46:22.897Z,65.63
2018-12-17T08:48:51.379Z,65.75
2018-12-17T08:51:19.835Z,65.29
2018-12-17T08:53:48.311Z,65.64
2018-12-17T08:56:17.033Z,65.44
2018-12-17T08:58:57.333Z,65.34
2018-12-17T09:01:25.908Z,65.76
2018-12-17T09:03:54.423Z,65.81
2018-12-17T09:06:22.915Z,66.08
2018-12-17T09:08:51.424Z,66.17
2018-12-17T09:11:19.867Z,65.90
2018-12-17T09:13:48.550Z,66.00
2018-12-17T09:19:16.891Z,65.86
2018-12-17T09:21:45.352Z,65.42
2018-12-17T09:24:13.854Z,65.91
2018-12-17T09:26:42.344Z,65.60
2018-12-17T09:29:10.843Z,65.54
2018-12-17T09:31:39.373Z,65.03
2018-12-17T09:34:07.887Z,64.89
2018-12-17T09:36:36.621Z,64.92
2018-12-17T09:39:07.505Z,64.81
2018-12-17T09:41:36.088Z,65.04
2018-12-17T09:44:04.609Z,64.47
2018-12-17T09:46:33.429Z,64.52
2018-12-17T09:49:02.539Z,64.22
2018-12-17T09:51:30.969Z,64.10
2018-12-17T09:53:59.465Z,63.95
2018-12-17T09:56:27.941Z,64.10
2018-12-17T09:58:56.426Z,63.79
2018-12-17T10:01:24.885Z,63.53
2018-12-17T10:03:53.344Z,63.42
2018-12-17T10:06:21.800Z,63.04
2018-12-17T10:08:50.449Z,63.13
2018-12-17T10:11:18.912Z,63.50
2018-12-17T10:13:47.463Z,63.42
2018-12-17T10:16:15.924Z,63.47
2018-12-17T10:18:44.393Z,63.67
2018-12-17T10:21:12.869Z,63.56
2018-12-17T10:23:41.415Z,63.29
2018-12-17T10:26:10.009Z,63.64
2018-12-17T10:28:38.429Z,63.54
2018-12-17T10:31:06.914Z,63.99
2018-12-17T10:33:35.475Z,63.86
2018-12-17T10:36:03.953Z,63.49
2018-12-17T10:38:32.462Z,63.97
2018-12-17T10:41:00.931Z,63.86
2018-12-17T10:43:29.417Z,63.29
2018-12-17T10:45:57.930Z,63.76
2018-12-17T10:48:26.377Z,63.47
2018-12-17T10:50:54.907Z,63.53
2018-12-17T10:53:23.439Z,63.72
2018-12-17T10:55:51.933Z,63.83
2018-12-17T10:58:20.417Z,63.34
2018-12-17T11:00:54.295Z,63.34
2018-12-17T11:03:34.603Z,63.58
2018-12-17T11:06:06.882Z,63.53
2018-12-17T11:08:35.442Z,63.43
2018-12-17T11:11:04.192Z,63.46
2018-12-17T11:13:32.655Z,63.67
2018-12-17T11:16:01.185Z,63.79
2018-12-17T11:18:29.677Z,63.75
2018-12-17T11:20:58.276Z,63.86
2018-12-17T11:23:27.033Z,63.73
2018-12-17T11:25:55.516Z,63.15
2018-12-17T11:28:23.970Z,63.46
2018-12-17T11:30:52.416Z,63.42
2018-12-17T11:33:20.874Z,63.19
2018-12-17T11:35:49.363Z,63.08
2018-12-17T11:38:17.887Z,62.97
2018-12-17T11:40:46.432Z,62.58
2018-12-17T11:43:14.859Z,62.23
2018-12-17T11:45:43.364Z,62.64
2018-12-17T11:48:11.850Z,61.96
2018-12-17T11:50:40.361Z,62.26
2018-12-17T11:53:08.808Z,62.47
2018-12-17T11:55:37.302Z,62.07
2018-12-17T11:58:11.200Z,62.63
2018-12-17T12:00:41.620Z,62.34
2018-12-17T12:03:10.138Z,62.12
2018-12-17T12:05:38.644Z,61.93
2018-12-17T12:08:07.234Z,61.72
2018-12-17T12:10:35.695Z,61.56
2018-12-17T12:13:04.183Z,61.80
2018-12-17T12:15:32.772Z,61.92
2018-12-17T12:18:01.336Z,62.19
2018-12-17T12:20:29.840Z,61.99
2018-12-17T12:22:58.321Z,62.08
2018-12-17T12:25:26.803Z,62.10
2018-12-17T12:28:10.095Z,62.34
2018-12-17T12:30:38.576Z,61.98
2018-12-17T12:33:07.069Z,62.03
2018-12-17T12:35:35.522Z,62.08
2018-12-17T12:38:04.032Z,62.02
2018-12-17T12:40:33.216Z,62.20
2018-12-17T12:43:01.947Z,62.13
2018-12-17T12:45:30.420Z,62.08
2018-12-17T12:47:58.968Z,62.23
2018-12-17T12:50:27.486Z,62.46
2018-12-17T12:52:56.030Z,62.07
2018-12-17T12:55:24.490Z,62.12
2018-12-17T12:57:52.916Z,62.08
2018-12-17T13:00:21.409Z,62.17
2018-12-17T13:02:49.853Z,61.90
2018-12-17T13:05:18.345Z,62.11
2018-12-17T13:07:46.834Z,62.24
2018-12-17T13:10:15.287Z,61.67
2018-12-17T13:12:43.783Z,61.90
2018-12-17T13:15:12.284Z,61.96
2018-12-17T13:17:40.765Z,62.04
2018-12-17T13:20:10.008Z,62.04
2018-12-17T13:22:39.670Z,61.66
2018-12-17T13:25:13.517Z,61.95
2018-12-17T13:27:42.027Z,62.30
2018-12-17T13:30:10.694Z,62.35
2018-12-17T13:32:39.158Z,62.33
2018-12-17T13:35:08.800Z,62.20
2018-12-17T13:37:37.306Z,62.59
2018-12-17T13:40:08.150Z,62.55
2018-12-17T13:42:36.717Z,62.55
2018-12-17T13:45:05.806Z,62.84
2018-12-17T13:47:34.334Z,62.89
2018-12-17T13:50:08.183Z,62.81
2018-12-17T13:52:41.938Z,62.28
2018-12-17T13:55:10.617Z,62.37
2018-12-17T13:57:39.400Z,62.73
2018-12-17T14:00:09.397Z,62.49
2018-12-17T14:02:37.893Z,62.74
2018-12-17T14:05:06.431Z,62.73
2018-12-17T14:07:34.966Z,62.79
2018-12-17T14:10:08.831Z,62.37
2018-12-17T14:12:37.287Z,62.74
2018-12-17T14:15:05.823Z,62.75
2018-12-17T14:17:36.384Z,62.48
2018-12-17T14:21:13.880Z,62.45
2018-12-17T14:23:42.434Z,63.10
2018-12-17T14:26:10.999Z,63.07
2018-12-17T14:28:39.546Z,63.34
2018-12-17T14:31:08.086Z,63.21
2018-12-17T14:33:36.633Z,63.26
2018-12-17T14:36:09.689Z,62.87
2018-12-17T14:38:39.704Z,62.57
2018-12-17T14:41:08.214Z,62.72
2018-12-17T14:43:36.758Z,62.71
2018-12-17T14:46:05.334Z,62.60
2018-12-17T14:48:33.826Z,63.17
2018-12-17T14:51:02.320Z,62.96
2018-12-17T14:53:30.801Z,62.46
2018-12-17T14:55:59.293Z,62.81
2018-12-17T14:58:27.727Z,62.69
2018-12-17T15:00:56.171Z,62.74
2018-12-17T15:03:24.687Z,62.91
2018-12-17T15:05:53.222Z,62.80
2018-12-17T15:08:21.887Z,62.63
2018-12-17T15:10:50.330Z,62.61
2018-12-17T15:13:18.820Z,62.67
2018-12-17T15:15:47.345Z,62.68
2018-12-17T15:18:15.833Z,62.49
2018-12-17T15:20:44.276Z,62.51
2018-12-17T15:23:12.738Z,62.46
2018-12-17T15:25:41.245Z,62.56
2018-12-17T15:28:09.698Z,62.62
2018-12-17T15:30:38.487Z,62.70
2018-12-17T15:33:07.045Z,62.59
2018-12-17T15:35:35.504Z,62.48
2018-12-17T15:38:04.055Z,62.54
2018-12-17T15:40:32.513Z,62.56
2018-12-17T15:43:01.220Z,62.61
2018-12-17T15:45:29.760Z,62.57
2018-12-17T15:47:58.270Z,62.42
2018-12-17T15:50:26.788Z,62.62
2018-12-17T15:52:55.335Z,62.60
2018-12-17T15:55:23.852Z,62.56
2018-12-17T15:57:52.369Z,62.39
2018-12-17T16:00:20.915Z,61.97
2018-12-17T16:02:49.439Z,62.78
2018-12-17T16:05:18.020Z,62.74
2018-12-17T16:07:46.530Z,62.31
2018-12-17T16:10:15.067Z,62.52
2018-12-17T16:12:43.560Z,62.54
2018-12-17T16:15:12.042Z,62.38
2018-12-17T16:17:40.580Z,62.61
2018-12-17T16:20:09.142Z,62.80
2018-12-17T16:22:37.675Z,62.58
2018-12-17T16:25:06.520Z,62.61
2018-12-17T16:27:35.093Z,62.49
2018-12-17T16:30:03.576Z,62.73
2018-12-17T16:32:32.048Z,62.38
2018-12-17T16:35:00.516Z,62.43
2018-12-17T16:37:28.990Z,62.25
2018-12-17T16:39:57.572Z,62.39
2018-12-17T16:42:26.786Z,62.24
2018-12-17T16:44:55.812Z,62.61
2018-12-17T16:47:24.427Z,61.99
2018-12-17T16:49:53.428Z,62.29
2018-12-17T16:52:22.809Z,62.04
2018-12-17T16:54:51.736Z,62.13
2018-12-17T16:57:20.699Z,61.79
2018-12-17T16:59:49.569Z,62.13
2018-12-17T17:02:18.925Z,62.08
2018-12-17T17:04:48.820Z,61.99
2018-12-17T17:07:18.423Z,62.08
2018-12-17T17:09:47.515Z,62.51
2018-12-17T17:12:16.223Z,61.80
2018-12-17T17:14:44.891Z,62.29
2018-12-17T17:17:13.434Z,62.42
2018-12-17T17:19:42.023Z,62.38
2018-12-17T17:22:10.704Z,62.50
2018-12-17T17:24:39.718Z,62.26
2018-12-17T17:27:08.190Z,62.48
2018-12-17T17:29:36.637Z,62.43
2018-12-17T17:32:11.427Z,62.37
2018-12-17T17:34:35.722Z,62.70
2018-12-17T17:37:04.215Z,62.79
2018-12-17T17:39:32.883Z,62.63
2018-12-17T17:42:01.378Z,63.01
2018-12-17T17:44:29.917Z,62.89
2018-12-17T17:46:58.370Z,62.76
2018-12-17T17:49:26.934Z,63.33
2018-12-17T17:51:55.452Z,63.04
2018-12-17T17:54:24.636Z,63.02
2018-12-17T17:56:53.173Z,62.97
2018-12-17T17:59:23.322Z,62.91
2018-12-17T18:01:52.609Z,62.84
2018-12-17T18:04:22.032Z,62.85
2018-12-17T18:06:52.968Z,62.74
2018-12-17T18:09:22.478Z,62.78
2018-12-17T18:11:52.013Z,62.98
2018-12-17T18:14:21.669Z,63.18
2018-12-17T18:16:57.666Z,63.13
2018-12-17T18:19:27.645Z,63.58
2018-12-17T18:21:57.903Z,63.58
2018-12-17T18:24:29.180Z,63.58
2018-12-17T18:26:59.333Z,63.42
2018-12-17T18:29:30.159Z,63.41
2018-12-17T18:31:59.809Z,63.25
2018-12-17T18:34:29.318Z,63.17
2018-12-17T18:36:58.918Z,63.20
2018-12-17T18:39:28.702Z,63.03
2018-12-17T18:41:58.469Z,62.78
2018-12-17T18:44:27.198Z,63.19
2018-12-17T18:46:55.823Z,63.12
2018-12-17T18:49:24.641Z,63.19
2018-12-17T18:51:53.171Z,63.47
2018-12-17T18:54:21.946Z,63.08
2018-12-17T18:59:27.988Z,63.02
2018-12-17T19:01:57.157Z,62.67
2018-12-17T19:04:25.887Z,62.95
2018-12-17T19:06:54.399Z,62.32
2018-12-17T19:09:23.030Z,62.52
2018-12-17T19:11:51.628Z,62.36
2018-12-17T19:14:20.337Z,62.39
2018-12-17T19:16:48.819Z,62.15
2018-12-17T19:19:17.340Z,62.15
2018-12-17T19:21:45.848Z,61.88
2018-12-17T19:24:14.394Z,62.04
2018-12-17T19:26:42.869Z,62.06
2018-12-17T19:29:11.367Z,61.86
2018-12-17T19:31:39.943Z,62.16
2018-12-17T19:34:08.506Z,61.90
2018-12-17T19:36:37.121Z,61.83
2018-12-17T19:39:07.711Z,61.64
2018-12-17T19:41:36.259Z,61.49
2018-12-17T19:44:04.837Z,61.43
2018-12-17T19:46:33.382Z,61.47
2018-12-17T19:49:01.969Z,61.17
2018-12-17T19:51:30.506Z,61.07
2018-12-17T19:53:59.045Z,61.47
2018-12-17T19:56:27.602Z,61.29
2018-12-17T19:58:56.253Z,61.68
2018-12-17T20:01:24.792Z,61.33
2018-12-17T20:03:53.410Z,61.23
2018-12-17T20:06:21.930Z,61.60
2018-12-17T20:08:50.497Z,61.24
2018-12-17T20:11:19.260Z,61.30
2018-12-17T20:13:47.774Z,61.34
2018-12-17T20:16:16.404Z,61.52
2018-12-17T20:18:44.962Z,61.65
2018-12-17T20:21:13.528Z,61.46
2018-12-17T20:23:47.990Z,61.36
2018-12-17T20:26:16.562Z,61.49
2018-12-17T20:28:45.110Z,61.35
2018-12-17T20:31:13.580Z,61.54
2018-12-17T20:33:42.100Z,61.44
2018-12-17T20:36:10.714Z,61.74
2018-12-17T20:38:39.261Z,61.88
2018-12-17T20:41:07.851Z,61.82
2018-12-17T20:43:36.356Z,61.95
2018-12-17T20:46:04.947Z,61.66
2018-12-17T20:48:33.448Z,61.65
2018-12-17T20:51:01.999Z,61.47
2018-12-17T20:53:30.498Z,61.77
2018-12-17T20:55:59.003Z,61.39
2018-12-17T20:58:27.460Z,61.60
2018-12-17T21:00:56.050Z,61.83
2018-12-17T21:03:24.526Z,61.57
2018-12-17T21:05:53.074Z,61.70
2018-12-17T21:08:21.649Z,61.74
2018-12-17T21:10:50.270Z,61.56
2018-12-17T21:13:18.724Z,61.55
2018-12-17T21:15:47.245Z,61.66
2018-12-17T21:18:22.101Z,61.63
2018-12-17T21:20:50.585Z,61.77
2018-12-17T21:23:19.462Z,61.54
2018-12-17T21:25:47.957Z,61.39
2018-12-17T21:28:16.443Z,61.74
2018-12-17T21:30:45.778Z,61.60
2018-12-17T21:33:14.254Z,61.53
2018-12-17T21:35:42.834Z,61.44
2018-12-17T21:38:11.278Z,61.48
2018-12-17T21:40:39.759Z,61.58
2018-12-17T21:43:08.283Z,61.66
2018-12-17T21:45:36.960Z,61.24
2018-12-17T21:48:05.478Z,61.62
2018-12-17T21:50:33.942Z,61.22
2018-12-17T21:53:02.417Z,61.49
2018-12-17T21:55:30.956Z,61.50
2018-12-17T21:57:59.460Z,61.16
2018-12-17T22:00:27.969Z,61.01
2018-12-17T22:02:56.546Z,61.28
2018-12-17T22:05:25.020Z,60.91
2018-12-17T22:07:53.512Z,60.81
2018-12-17T22:10:26.202Z,60.67
2018-12-17T22:12:54.725Z,61.13
2018-12-17T22:15:23.187Z,60.95
2018-12-17T22:17:51.693Z,60.84
2018-12-17T22:20:20.212Z,60.97
2018-12-17T22:22:48.735Z,60.68
2018-12-17T22:25:17.240Z,60.69
2018-12-17T22:27:45.760Z,60.99
2018-12-17T22:30:14.303Z,59.98
2018-12-17T22:32:42.797Z,60.37
2018-12-17T22:35:11.267Z,60.47
2018-12-17T22:37:39.739Z,60.66
2018-12-17T22:40:08.887Z,60.18
2018-12-17T22:42:37.610Z,60.06
2018-12-17T22:45:06.261Z,60.16
2018-12-17T22:47:35.363Z,60.32
2018-12-17T22:50:03.994Z,60.30
2018-12-17T22:52:32.691Z,60.37
2018-12-17T22:55:01.378Z,59.90
2018-12-17T22:57:30.060Z,60.51
2018-12-17T22:59:58.615Z,60.13
2018-12-17T23:02:27.173Z,60.41
2018-12-17T23:04:55.683Z,59.87
2018-12-17T23:07:25.780Z,60.23
2018-12-17T23:10:05.461Z,60.27
2018-12-17T23:12:45.076Z,60.20
2018-12-17T23:15:24.876Z,59.97
2018-12-17T23:17:52.764Z,59.99
2018-12-17T23:20:21.415Z,59.91
2018-12-17T23:22:49.910Z,60.02
2018-12-17T23:25:18.479Z,59.78
2018-12-17T23:27:50.886Z,60.01
2018-12-17T23:30:20.763Z,60.20
2018-12-17T23:32:49.188Z,60.35
2018-12-17T23:35:17.669Z,60.12
2018-12-17T23:37:46.174Z,59.76
2018-12-17T23:40:14.705Z,60.16
2018-12-17T23:42:43.236Z,60.31
2018-12-17T23:45:11.817Z,60.02
2018-12-17T23:47:40.302Z,60.06
2018-12-17T23:50:09.026Z,59.98
2018-12-17T23:52:37.512Z,60.23
2018-12-17T23:55:05.964Z,60.02
2018-12-17T23:57:34.408Z,60.04
